sensor_id;sensor_type;location;lat;lon;timestamp;pressure;altitude;pressure_sealevel;temperature;humidity
74881;BME280;63427;49.654;6.596;2023-01-10T00:02:13;99552.41;;;8.35;43.19
74881;BME280;63427;49.654;6.596;2023-01-10T00:04:39;99556.39;;;8.55;42.99
74881;BME280;63427;49.654;6.596;2023-01-10T00:07:05;99560.80;;;8.52;42.87
74881;BME280;63427;49.654;6.596;2023-01-10T00:09:30;99566.49;;;8.60;42.78
74881;BME280;63427;49.654;6.596;2023-01-10T00:11:56;99575.27;;;8.40;42.64
74881;BME280;63427;49.654;6.596;2023-01-10T00:14:22;99580.83;;;8.35;42.72
74881;BME280;63427;49.654;6.596;2023-01-10T00:16:47;99593.19;;;8.62;42.96
74881;BME280;63427;49.654;6.596;2023-01-10T00:19:13;99598.52;;;8.46;42.97
74881;BME280;63427;49.654;6.596;2023-01-10T00:21:39;99605.86;;;8.59;42.93
74881;BME280;63427;49.654;6.596;2023-01-10T00:24:05;99614.41;;;8.47;43.08
74881;BME280;63427;49.654;6.596;2023-01-10T00:26:30;99626.63;;;8.37;43.31
74881;BME280;63427;49.654;6.596;2023-01-10T00:28:56;99630.87;;;8.20;43.76
74881;BME280;63427;49.654;6.596;2023-01-10T00:31:22;99629.78;;;8.16;44.04
74881;BME280;63427;49.654;6.596;2023-01-10T00:33:47;99632.69;;;7.81;44.55
74881;BME280;63427;49.654;6.596;2023-01-10T00:36:13;99636.56;;;8.08;43.99
74881;BME280;63427;49.654;6.596;2023-01-10T00:38:39;99646.76;;;8.26;43.90
74881;BME280;63427;49.654;6.596;2023-01-10T00:41:05;99654.71;;;8.20;43.70
74881;BME280;63427;49.654;6.596;2023-01-10T00:43:30;99654.91;;;8.03;43.94
74881;BME280;63427;49.654;6.596;2023-01-10T00:45:56;99660.36;;;7.98;44.48
74881;BME280;63427;49.654;6.596;2023-01-10T00:48:22;99665.86;;;8.23;44.21
74881;BME280;63427;49.654;6.596;2023-01-10T00:50:48;99675.21;;;6.92;46.23
74881;BME280;63427;49.654;6.596;2023-01-10T00:53:13;99674.23;;;7.74;45.06
74881;BME280;63427;49.654;6.596;2023-01-10T00:55:39;99685.44;;;8.05;45.03
74881;BME280;63427;49.654;6.596;2023-01-10T00:58:04;99686.48;;;7.63;45.41
74881;BME280;63427;49.654;6.596;2023-01-10T01:00:30;99697.08;;;7.69;45.44
74881;BME280;63427;49.654;6.596;2023-01-10T01:02:56;99702.77;;;8.10;45.06
74881;BME280;63427;49.654;6.596;2023-01-10T01:05:22;99705.14;;;8.06;45.05
74881;BME280;63427;49.654;6.596;2023-01-10T01:07:48;99705.74;;;8.10;45.03
74881;BME280;63427;49.654;6.596;2023-01-10T01:10:13;99709.26;;;7.91;45.01
74881;BME280;63427;49.654;6.596;2023-01-10T01:12:39;99715.33;;;8.06;44.50
74881;BME280;63427;49.654;6.596;2023-01-10T01:15:05;99714.86;;;8.17;44.28
74881;BME280;63427;49.654;6.596;2023-01-10T01:17:30;99713.93;;;8.20;44.13
74881;BME280;63427;49.654;6.596;2023-01-10T01:19:56;99718.38;;;8.40;43.81
74881;BME280;63427;49.654;6.596;2023-01-10T01:22:22;99723.84;;;8.28;43.60
74881;BME280;63427;49.654;6.596;2023-01-10T01:24:47;99731.86;;;8.13;43.89
74881;BME280;63427;49.654;6.596;2023-01-10T01:27:13;99733.59;;;7.44;45.51
74881;BME280;63427;49.654;6.596;2023-01-10T01:29:39;99737.36;;;7.63;45.17
74881;BME280;63427;49.654;6.596;2023-01-10T01:32:05;99742.76;;;7.39;45.28
74881;BME280;63427;49.654;6.596;2023-01-10T01:34:30;99748.33;;;7.85;45.22
74881;BME280;63427;49.654;6.596;2023-01-10T01:36:56;99750.16;;;7.53;45.31
74881;BME280;63427;49.654;6.596;2023-01-10T01:39:21;99755.36;;;7.74;45.15
74881;BME280;63427;49.654;6.596;2023-01-10T01:41:47;99763.30;;;7.53;45.06
74881;BME280;63427;49.654;6.596;2023-01-10T01:44:15;99774.96;;;7.52;45.13
74881;BME280;63427;49.654;6.596;2023-01-10T01:46:40;99779.17;;;7.03;45.93
74881;BME280;63427;49.654;6.596;2023-01-10T01:49:10;99783.99;;;7.29;45.71
74881;BME280;63427;49.654;6.596;2023-01-10T01:51:30;99775.31;;;7.72;45.06
74881;BME280;63427;49.654;6.596;2023-01-10T01:53:59;99785.22;;;7.46;45.60
74881;BME280;63427;49.654;6.596;2023-01-10T01:56:23;99787.88;;;7.52;45.47
74881;BME280;63427;49.654;6.596;2023-01-10T01:58:50;99790.29;;;7.52;45.63
74881;BME280;63427;49.654;6.596;2023-01-10T02:01:14;99789.34;;;7.52;45.09
74881;BME280;63427;49.654;6.596;2023-01-10T02:03:39;99794.41;;;7.34;45.56
74881;BME280;63427;49.654;6.596;2023-01-10T02:06:05;99802.39;;;7.44;45.43
74881;BME280;63427;49.654;6.596;2023-01-10T02:08:29;99811.78;;;7.73;45.43
74881;BME280;63427;49.654;6.596;2023-01-10T02:11:01;99811.36;;;7.29;45.26
74881;BME280;63427;49.654;6.596;2023-01-10T02:13:23;99809.91;;;7.72;45.45
74881;BME280;63427;49.654;6.596;2023-01-10T02:15:47;99810.75;;;7.39;46.16
74881;BME280;63427;49.654;6.596;2023-01-10T02:18:13;99807.33;;;7.74;45.64
74881;BME280;63427;49.654;6.596;2023-01-10T02:20:47;99809.38;;;7.73;45.60
74881;BME280;63427;49.654;6.596;2023-01-10T02:30:38;99819.82;;;7.41;45.69
74881;BME280;63427;49.654;6.596;2023-01-10T02:32:49;99823.13;;;7.18;45.70
74881;BME280;63427;49.654;6.596;2023-01-10T02:35:23;99823.93;;;7.40;46.20
74881;BME280;63427;49.654;6.596;2023-01-10T02:37:44;99825.87;;;7.43;46.21
74881;BME280;63427;49.654;6.596;2023-01-10T02:40:08;99830.37;;;7.20;45.74
74881;BME280;63427;49.654;6.596;2023-01-10T02:42:35;99835.08;;;7.44;45.57
74881;BME280;63427;49.654;6.596;2023-01-10T02:45:01;99838.28;;;6.91;46.71
74881;BME280;63427;49.654;6.596;2023-01-10T02:47:20;99837.69;;;7.41;46.03
74881;BME280;63427;49.654;6.596;2023-01-10T02:49:48;99845.64;;;7.52;45.63
74881;BME280;63427;49.654;6.596;2023-01-10T02:52:14;99848.96;;;7.10;46.34
74881;BME280;63427;49.654;6.596;2023-01-10T02:54:37;99854.26;;;7.09;45.99
74881;BME280;63427;49.654;6.596;2023-01-10T02:57:18;99847.73;;;7.74;45.38
74881;BME280;63427;49.654;6.596;2023-01-10T03:01:59;99857.76;;;7.47;45.18
74881;BME280;63427;49.654;6.596;2023-01-10T03:04:25;99860.27;;;7.52;45.48
74881;BME280;63427;49.654;6.596;2023-01-10T03:06:53;99862.70;;;6.77;46.55
74881;BME280;63427;49.654;6.596;2023-01-10T03:09:17;99867.63;;;7.28;45.58
74881;BME280;63427;49.654;6.596;2023-01-10T03:11:39;99874.42;;;7.22;45.69
74881;BME280;63427;49.654;6.596;2023-01-10T03:14:05;99877.52;;;7.27;45.37
74881;BME280;63427;49.654;6.596;2023-01-10T03:16:31;99881.42;;;7.49;45.63
74881;BME280;63427;49.654;6.596;2023-01-10T03:18:57;99887.93;;;7.57;45.18
74881;BME280;63427;49.654;6.596;2023-01-10T03:21:21;99882.38;;;7.63;44.93
74881;BME280;63427;49.654;6.596;2023-01-10T03:23:48;99884.58;;;6.70;46.01
74881;BME280;63427;49.654;6.596;2023-01-10T03:26:12;99889.86;;;7.30;45.97
74881;BME280;63427;49.654;6.596;2023-01-10T03:28:42;99901.79;;;7.56;45.42
74881;BME280;63427;49.654;6.596;2023-01-10T03:31:05;99903.40;;;7.38;45.51
74881;BME280;63427;49.654;6.596;2023-01-10T03:33:31;99904.65;;;7.73;45.28
74881;BME280;63427;49.654;6.596;2023-01-10T03:36:03;99913.31;;;6.71;46.28
74881;BME280;63427;49.654;6.596;2023-01-10T03:38:25;99919.11;;;7.10;46.30
74881;BME280;63427;49.654;6.596;2023-01-10T03:40:52;99918.07;;;7.36;45.86
74881;BME280;63427;49.654;6.596;2023-01-10T03:43:17;99919.44;;;7.83;45.21
74881;BME280;63427;49.654;6.596;2023-01-10T03:45:41;99926.04;;;7.95;44.71
74881;BME280;63427;49.654;6.596;2023-01-10T03:48:04;99929.31;;;7.89;44.34
74881;BME280;63427;49.654;6.596;2023-01-10T03:50:29;99933.65;;;7.79;44.31
74881;BME280;63427;49.654;6.596;2023-01-10T03:52:54;99935.28;;;8.00;44.19
74881;BME280;63427;49.654;6.596;2023-01-10T03:55:22;99937.80;;;7.73;44.30
74881;BME280;63427;49.654;6.596;2023-01-10T03:57:44;99943.01;;;8.23;44.33
74881;BME280;63427;49.654;6.596;2023-01-10T04:00:12;99944.13;;;7.77;44.58
74881;BME280;63427;49.654;6.596;2023-01-10T04:02:35;99952.42;;;7.69;44.62
74881;BME280;63427;49.654;6.596;2023-01-10T04:05:01;99960.94;;;7.75;45.22
74881;BME280;63427;49.654;6.596;2023-01-10T04:07:27;99963.01;;;7.66;45.33
74881;BME280;63427;49.654;6.596;2023-01-10T04:09:52;99965.18;;;7.86;44.62
74881;BME280;63427;49.654;6.596;2023-01-10T04:12:18;99971.76;;;7.45;44.93
74881;BME280;63427;49.654;6.596;2023-01-10T04:14:43;99981.06;;;7.97;44.69
74881;BME280;63427;49.654;6.596;2023-01-10T04:17:10;99988.16;;;8.07;44.60
74881;BME280;63427;49.654;6.596;2023-01-10T04:19:35;99988.85;;;7.97;44.75
74881;BME280;63427;49.654;6.596;2023-01-10T04:22:00;99994.50;;;7.97;44.65
74881;BME280;63427;49.654;6.596;2023-01-10T04:24:25;99996.64;;;7.49;44.81
74881;BME280;63427;49.654;6.596;2023-01-10T04:26:51;99995.57;;;7.59;45.30
74881;BME280;63427;49.654;6.596;2023-01-10T04:29:17;99991.74;;;8.01;44.57
74881;BME280;63427;49.654;6.596;2023-01-10T04:31:43;100003.46;;;7.49;44.87
74881;BME280;63427;49.654;6.596;2023-01-10T04:34:08;100007.31;;;7.99;44.56
74881;BME280;63427;49.654;6.596;2023-01-10T04:36:34;100006.56;;;7.64;45.04
74881;BME280;63427;49.654;6.596;2023-01-10T04:38:59;100005.31;;;7.86;44.92
74881;BME280;63427;49.654;6.596;2023-01-10T04:41:25;100007.14;;;7.89;44.78
74881;BME280;63427;49.654;6.596;2023-01-10T04:43:51;100007.91;;;7.92;44.55
74881;BME280;63427;49.654;6.596;2023-01-10T04:46:16;100009.31;;;7.75;44.25
74881;BME280;63427;49.654;6.596;2023-01-10T04:48:43;100021.12;;;7.96;44.17
74881;BME280;63427;49.654;6.596;2023-01-10T04:51:08;100024.61;;;7.79;44.02
74881;BME280;63427;49.654;6.596;2023-01-10T04:53:34;100029.78;;;7.37;44.32
74881;BME280;63427;49.654;6.596;2023-01-10T04:56:02;100031.22;;;7.66;44.52
74881;BME280;63427;49.654;6.596;2023-01-10T04:58:25;100029.34;;;7.66;44.89
74881;BME280;63427;49.654;6.596;2023-01-10T05:00:51;100030.52;;;7.44;44.58
74881;BME280;63427;49.654;6.596;2023-01-10T05:03:16;100028.45;;;7.70;43.73
74881;BME280;63427;49.654;6.596;2023-01-10T05:05:42;100026.49;;;7.62;43.51
74881;BME280;63427;49.654;6.596;2023-01-10T05:08:07;100027.06;;;8.05;43.34
74881;BME280;63427;49.654;6.596;2023-01-10T05:10:33;100021.13;;;7.52;43.48
74881;BME280;63427;49.654;6.596;2023-01-10T05:12:59;100023.79;;;7.96;43.12
74881;BME280;63427;49.654;6.596;2023-01-10T05:15:24;100024.83;;;7.56;43.34
74881;BME280;63427;49.654;6.596;2023-01-10T05:17:57;100019.35;;;7.80;42.65
74881;BME280;63427;49.654;6.596;2023-01-10T05:20:16;100021.14;;;8.15;42.11
74881;BME280;63427;49.654;6.596;2023-01-10T05:22:41;100027.27;;;7.48;42.73
74881;BME280;63427;49.654;6.596;2023-01-10T05:25:08;100027.78;;;8.06;42.15
74881;BME280;63427;49.654;6.596;2023-01-10T05:27:33;100030.61;;;8.23;42.15
74881;BME280;63427;49.654;6.596;2023-01-10T05:29:58;100045.65;;;8.21;41.66
74881;BME280;63427;49.654;6.596;2023-01-10T05:32:27;100054.60;;;8.07;41.91
74881;BME280;63427;49.654;6.596;2023-01-10T05:34:50;100060.57;;;8.03;42.29
74881;BME280;63427;49.654;6.596;2023-01-10T05:37:15;100055.64;;;8.47;42.24
74881;BME280;63427;49.654;6.596;2023-01-10T05:39:41;100053.27;;;7.94;42.76
74881;BME280;63427;49.654;6.596;2023-01-10T05:42:07;100042.75;;;8.21;42.20
74881;BME280;63427;49.654;6.596;2023-01-10T05:44:33;100034.74;;;8.27;42.23
74881;BME280;63427;49.654;6.596;2023-01-10T05:46:58;100033.57;;;8.15;42.02
74881;BME280;63427;49.654;6.596;2023-01-10T05:49:24;100046.76;;;7.75;42.91
74881;BME280;63427;49.654;6.596;2023-01-10T05:51:49;100056.36;;;7.83;42.72
74881;BME280;63427;49.654;6.596;2023-01-10T05:54:15;100057.54;;;8.04;42.60
74881;BME280;63427;49.654;6.596;2023-01-10T05:56:41;100063.45;;;8.10;42.48
74881;BME280;63427;49.654;6.596;2023-01-10T05:59:06;100069.30;;;8.30;42.20
74881;BME280;63427;49.654;6.596;2023-01-10T06:01:32;100074.17;;;8.40;42.05
74881;BME280;63427;49.654;6.596;2023-01-10T06:03:58;100079.57;;;8.40;42.30
74881;BME280;63427;49.654;6.596;2023-01-10T06:06:23;100084.98;;;8.33;42.40
74881;BME280;63427;49.654;6.596;2023-01-10T06:08:49;100091.96;;;8.21;42.92
74881;BME280;63427;49.654;6.596;2023-01-10T06:11:15;100105.58;;;8.07;42.61
74881;BME280;63427;49.654;6.596;2023-01-10T06:13:41;100108.88;;;8.06;43.21
74881;BME280;63427;49.654;6.596;2023-01-10T06:16:07;100114.93;;;7.89;43.38
74881;BME280;63427;49.654;6.596;2023-01-10T06:18:32;100112.58;;;7.79;43.69
74881;BME280;63427;49.654;6.596;2023-01-10T06:20:58;100113.24;;;8.16;43.86
74881;BME280;63427;49.654;6.596;2023-01-10T06:23:24;100108.59;;;8.05;43.47
74881;BME280;63427;49.654;6.596;2023-01-10T06:25:49;100108.99;;;7.75;43.65
74881;BME280;63427;49.654;6.596;2023-01-10T06:28:16;100115.52;;;8.19;43.74
74881;BME280;63427;49.654;6.596;2023-01-10T06:30:41;100114.22;;;7.32;44.76
74881;BME280;63427;49.654;6.596;2023-01-10T06:33:07;100115.80;;;7.81;44.90
74881;BME280;63427;49.654;6.596;2023-01-10T06:35:32;100116.35;;;7.74;44.61
74881;BME280;63427;49.654;6.596;2023-01-10T06:37:57;100121.11;;;7.85;44.50
74881;BME280;63427;49.654;6.596;2023-01-10T06:40:22;100131.44;;;7.61;44.22
74881;BME280;63427;49.654;6.596;2023-01-10T06:42:48;100134.45;;;7.73;43.46
74881;BME280;63427;49.654;6.596;2023-01-10T06:45:13;100136.43;;;7.85;43.37
74881;BME280;63427;49.654;6.596;2023-01-10T06:47:38;100138.08;;;7.92;43.32
74881;BME280;63427;49.654;6.596;2023-01-10T06:50:05;100136.32;;;7.76;43.31
74881;BME280;63427;49.654;6.596;2023-01-10T06:52:29;100131.27;;;7.80;43.56
74881;BME280;63427;49.654;6.596;2023-01-10T06:54:55;100140.47;;;7.47;44.13
74881;BME280;63427;49.654;6.596;2023-01-10T06:57:21;100142.61;;;6.91;44.78
74881;BME280;63427;49.654;6.596;2023-01-10T06:59:46;100143.04;;;7.62;44.25
74881;BME280;63427;49.654;6.596;2023-01-10T07:02:12;100151.97;;;7.38;44.68
74881;BME280;63427;49.654;6.596;2023-01-10T07:04:38;100155.11;;;7.42;44.99
74881;BME280;63427;49.654;6.596;2023-01-10T07:07:03;100168.75;;;7.53;44.42
74881;BME280;63427;49.654;6.596;2023-01-10T07:09:29;100169.11;;;7.84;44.97
74881;BME280;63427;49.654;6.596;2023-01-10T07:11:55;100169.79;;;7.56;44.37
74881;BME280;63427;49.654;6.596;2023-01-10T07:14:21;100170.57;;;7.36;44.68
74881;BME280;63427;49.654;6.596;2023-01-10T07:16:46;100158.01;;;8.24;43.69
74881;BME280;63427;49.654;6.596;2023-01-10T07:19:13;100164.69;;;7.60;43.73
74881;BME280;63427;49.654;6.596;2023-01-10T07:21:37;100175.15;;;7.66;43.88
74881;BME280;63427;49.654;6.596;2023-01-10T07:24:04;100170.51;;;7.65;44.64
74881;BME280;63427;49.654;6.596;2023-01-10T07:26:29;100179.30;;;7.73;44.59
74881;BME280;63427;49.654;6.596;2023-01-10T07:28:55;100178.55;;;7.16;45.27
74881;BME280;63427;49.654;6.596;2023-01-10T07:31:21;100171.93;;;7.69;44.90
74881;BME280;63427;49.654;6.596;2023-01-10T07:33:46;100173.36;;;7.79;44.45
74881;BME280;63427;49.654;6.596;2023-01-10T07:36:13;100176.53;;;8.06;43.68
74881;BME280;63427;49.654;6.596;2023-01-10T07:38:37;100183.12;;;7.99;44.52
74881;BME280;63427;49.654;6.596;2023-01-10T07:41:04;100184.22;;;8.07;43.65
74881;BME280;63427;49.654;6.596;2023-01-10T07:43:29;100187.15;;;7.56;44.71
74881;BME280;63427;49.654;6.596;2023-01-10T07:45:57;100186.62;;;8.02;44.18
74881;BME280;63427;49.654;6.596;2023-01-10T07:48:20;100196.78;;;7.96;43.74
74881;BME280;63427;49.654;6.596;2023-01-10T07:50:45;100208.58;;;7.78;43.88
74881;BME280;63427;49.654;6.596;2023-01-10T07:53:12;100222.52;;;8.55;43.45
74881;BME280;63427;49.654;6.596;2023-01-10T07:55:37;100229.10;;;8.69;43.05
74881;BME280;63427;49.654;6.596;2023-01-10T07:58:02;100229.98;;;7.71;43.70
74881;BME280;63427;49.654;6.596;2023-01-10T08:00:28;100233.46;;;7.13;44.99
74881;BME280;63427;49.654;6.596;2023-01-10T08:02:54;100242.31;;;7.60;44.11
74881;BME280;63427;49.654;6.596;2023-01-10T08:05:18;100247.98;;;7.51;44.76
74881;BME280;63427;49.654;6.596;2023-01-10T08:07:44;100248.11;;;7.56;44.09
74881;BME280;63427;49.654;6.596;2023-01-10T08:10:10;100244.58;;;7.35;44.21
74881;BME280;63427;49.654;6.596;2023-01-10T08:12:35;100252.63;;;7.26;44.37
74881;BME280;63427;49.654;6.596;2023-01-10T08:15:01;100258.75;;;7.10;45.21
74881;BME280;63427;49.654;6.596;2023-01-10T08:17:26;100266.10;;;6.98;45.35
74881;BME280;63427;49.654;6.596;2023-01-10T08:19:52;100263.08;;;7.17;44.74
74881;BME280;63427;49.654;6.596;2023-01-10T08:22:17;100268.52;;;7.46;44.75
74881;BME280;63427;49.654;6.596;2023-01-10T08:24:43;100267.97;;;7.60;44.50
74881;BME280;63427;49.654;6.596;2023-01-10T08:27:09;100270.69;;;7.44;44.75
74881;BME280;63427;49.654;6.596;2023-01-10T08:29:34;100274.27;;;7.29;45.02
74881;BME280;63427;49.654;6.596;2023-01-10T08:32:00;100284.05;;;7.79;44.46
74881;BME280;63427;49.654;6.596;2023-01-10T08:34:25;100287.61;;;7.23;44.90
74881;BME280;63427;49.654;6.596;2023-01-10T08:36:50;100287.95;;;7.35;44.69
74881;BME280;63427;49.654;6.596;2023-01-10T08:39:16;100290.53;;;7.50;45.14
74881;BME280;63427;49.654;6.596;2023-01-10T08:41:41;100287.53;;;7.18;45.37
74881;BME280;63427;49.654;6.596;2023-01-10T08:44:07;100289.99;;;7.06;45.18
74881;BME280;63427;49.654;6.596;2023-01-10T08:46:32;100292.04;;;7.70;44.74
74881;BME280;63427;49.654;6.596;2023-01-10T08:48:58;100287.17;;;7.32;44.99
74881;BME280;63427;49.654;6.596;2023-01-10T08:51:23;100286.72;;;6.99;45.53
74881;BME280;63427;49.654;6.596;2023-01-10T08:53:49;100290.26;;;7.39;44.88
74881;BME280;63427;49.654;6.596;2023-01-10T08:56:15;100289.21;;;7.42;45.25
74881;BME280;63427;49.654;6.596;2023-01-10T08:58:41;100290.86;;;7.30;44.95
74881;BME280;63427;49.654;6.596;2023-01-10T09:01:07;100292.84;;;6.63;46.08
74881;BME280;63427;49.654;6.596;2023-01-10T09:03:32;100292.41;;;7.19;45.23
74881;BME280;63427;49.654;6.596;2023-01-10T09:05:58;100293.48;;;7.16;45.65
74881;BME280;63427;49.654;6.596;2023-01-10T09:08:23;100293.33;;;6.94;45.25
74881;BME280;63427;49.654;6.596;2023-01-10T09:10:49;100294.62;;;6.90;46.03
74881;BME280;63427;49.654;6.596;2023-01-10T09:13:15;100299.73;;;7.40;45.11
74881;BME280;63427;49.654;6.596;2023-01-10T09:15:41;100296.34;;;6.62;45.86
74881;BME280;63427;49.654;6.596;2023-01-10T09:18:06;100293.08;;;7.43;45.12
74881;BME280;63427;49.654;6.596;2023-01-10T09:20:33;100297.13;;;7.68;44.42
74881;BME280;63427;49.654;6.596;2023-01-10T09:22:57;100299.33;;;7.65;44.30
74881;BME280;63427;49.654;6.596;2023-01-10T09:25:23;100301.45;;;7.84;43.85
74881;BME280;63427;49.654;6.596;2023-01-10T09:27:54;100310.00;;;7.72;43.67
74881;BME280;63427;49.654;6.596;2023-01-10T09:30:15;100311.76;;;7.94;43.50
74881;BME280;63427;49.654;6.596;2023-01-10T09:32:40;100312.34;;;7.34;44.24
74881;BME280;63427;49.654;6.596;2023-01-10T09:35:06;100308.99;;;7.43;44.43
74881;BME280;63427;49.654;6.596;2023-01-10T09:37:31;100310.31;;;7.91;43.16
74881;BME280;63427;49.654;6.596;2023-01-10T09:39:57;100308.13;;;7.05;43.87
74881;BME280;63427;49.654;6.596;2023-01-10T09:42:31;100313.97;;;7.98;44.05
74881;BME280;63427;49.654;6.596;2023-01-10T09:44:54;100319.73;;;8.00;43.86
74881;BME280;63427;49.654;6.596;2023-01-10T09:47:19;100324.50;;;7.77;43.85
74881;BME280;63427;49.654;6.596;2023-01-10T09:49:44;100321.40;;;8.19;43.77
74881;BME280;63427;49.654;6.596;2023-01-10T09:52:03;100316.34;;;8.11;42.89
74881;BME280;63427;49.654;6.596;2023-01-10T09:54:32;100318.31;;;7.85;43.45
74881;BME280;63427;49.654;6.596;2023-01-10T09:56:55;100321.43;;;8.05;42.92
74881;BME280;63427;49.654;6.596;2023-01-10T09:59:22;100325.72;;;7.46;43.79
74881;BME280;63427;49.654;6.596;2023-01-10T10:01:46;100328.33;;;7.95;43.55
74881;BME280;63427;49.654;6.596;2023-01-10T10:04:19;100328.67;;;8.45;42.92
74881;BME280;63427;49.654;6.596;2023-01-10T10:06:36;100329.69;;;8.53;42.28
74881;BME280;63427;49.654;6.596;2023-01-10T10:09:01;100345.03;;;8.32;42.65
74881;BME280;63427;49.654;6.596;2023-01-10T10:11:40;100339.32;;;8.50;42.55
74881;BME280;63427;49.654;6.596;2023-01-10T10:13:57;100343.65;;;8.51;42.45
74881;BME280;63427;49.654;6.596;2023-01-10T10:16:27;100345.23;;;7.86;43.01
74881;BME280;63427;49.654;6.596;2023-01-10T10:18:49;100341.59;;;7.40;43.87
74881;BME280;63427;49.654;6.596;2023-01-10T10:21:17;100341.12;;;7.63;43.53
74881;BME280;63427;49.654;6.596;2023-01-10T10:23:47;100340.54;;;7.88;42.77
74881;BME280;63427;49.654;6.596;2023-01-10T10:26:03;100335.08;;;8.07;42.23
74881;BME280;63427;49.654;6.596;2023-01-10T10:28:39;100331.25;;;8.54;41.79
74881;BME280;63427;49.654;6.596;2023-01-10T10:30:55;100320.01;;;8.67;41.70
74881;BME280;63427;49.654;6.596;2023-01-10T10:33:31;100318.24;;;8.45;41.50
74881;BME280;63427;49.654;6.596;2023-01-10T10:35:48;100313.74;;;8.06;42.56
74881;BME280;63427;49.654;6.596;2023-01-10T10:38:12;100314.47;;;7.95;43.11
74881;BME280;63427;49.654;6.596;2023-01-10T10:40:36;100313.93;;;8.25;42.74
74881;BME280;63427;49.654;6.596;2023-01-10T10:43:05;100307.24;;;7.91;42.88
74881;BME280;63427;49.654;6.596;2023-01-10T10:45:31;100308.26;;;8.27;42.46
74881;BME280;63427;49.654;6.596;2023-01-10T10:47:54;100303.20;;;7.70;43.33
74881;BME280;63427;49.654;6.596;2023-01-10T10:50:19;100301.75;;;7.88;42.86
74881;BME280;63427;49.654;6.596;2023-01-10T10:52:41;100301.69;;;8.35;41.90
74881;BME280;63427;49.654;6.596;2023-01-10T10:55:12;100305.53;;;8.44;42.33
74881;BME280;63427;49.654;6.596;2023-01-10T10:57:34;100295.23;;;8.47;42.10
74881;BME280;63427;49.654;6.596;2023-01-10T10:59:59;100293.89;;;8.44;42.13
74881;BME280;63427;49.654;6.596;2023-01-10T11:02:26;100288.19;;;8.46;41.52
74881;BME280;63427;49.654;6.596;2023-01-10T11:04:50;100280.27;;;8.43;41.57
74881;BME280;63427;49.654;6.596;2023-01-10T11:07:16;100282.34;;;8.79;41.30
74881;BME280;63427;49.654;6.596;2023-01-10T11:09:40;100285.17;;;8.24;41.54
74881;BME280;63427;49.654;6.596;2023-01-10T11:12:11;100281.47;;;7.84;42.63
74881;BME280;63427;49.654;6.596;2023-01-10T11:14:39;100274.15;;;8.38;42.28
74881;BME280;63427;49.654;6.596;2023-01-10T11:19:23;100270.37;;;8.39;42.04
74881;BME280;63427;49.654;6.596;2023-01-10T11:21:52;100267.92;;;8.83;41.40
74881;BME280;63427;49.654;6.596;2023-01-10T11:24:21;100265.67;;;8.93;41.39
74881;BME280;63427;49.654;6.596;2023-01-10T11:26:39;100260.67;;;8.10;41.16
74881;BME280;63427;49.654;6.596;2023-01-10T11:29:07;100257.33;;;8.98;40.44
74881;BME280;63427;49.654;6.596;2023-01-10T11:31:31;100250.98;;;8.62;41.07
74881;BME280;63427;49.654;6.596;2023-01-10T11:33:57;100237.20;;;8.98;40.98
74881;BME280;63427;49.654;6.596;2023-01-10T11:36:22;100229.84;;;8.50;41.52
74881;BME280;63427;49.654;6.596;2023-01-10T11:38:58;100230.80;;;8.65;41.56
74881;BME280;63427;49.654;6.596;2023-01-10T11:41:22;100226.56;;;8.78;40.68
74881;BME280;63427;49.654;6.596;2023-01-10T11:43:40;100228.65;;;8.66;41.16
74881;BME280;63427;49.654;6.596;2023-01-10T11:46:06;100220.78;;;8.98;40.65
74881;BME280;63427;49.654;6.596;2023-01-10T11:48:42;100219.01;;;8.58;41.63
74881;BME280;63427;49.654;6.596;2023-01-10T11:50:55;100211.56;;;9.15;40.88
74881;BME280;63427;49.654;6.596;2023-01-10T11:53:32;100208.82;;;9.06;40.50
74881;BME280;63427;49.654;6.596;2023-01-10T11:55:47;100208.09;;;8.66;40.35
74881;BME280;63427;49.654;6.596;2023-01-10T11:58:12;100202.98;;;8.50;41.23
74881;BME280;63427;49.654;6.596;2023-01-10T12:00:41;100203.90;;;8.00;41.70
74881;BME280;63427;49.654;6.596;2023-01-10T12:05:28;100203.68;;;8.25;41.89
74881;BME280;63427;49.654;6.596;2023-01-10T12:07:56;100202.21;;;8.05;42.62
74881;BME280;63427;49.654;6.596;2023-01-10T12:10:21;100202.05;;;8.76;41.10
74881;BME280;63427;49.654;6.596;2023-01-10T12:12:52;100204.65;;;9.11;40.70
74881;BME280;63427;49.654;6.596;2023-01-10T12:15:21;100202.81;;;8.71;41.12
74881;BME280;63427;49.654;6.596;2023-01-10T12:17:36;100196.56;;;9.14;41.26
74881;BME280;63427;49.654;6.596;2023-01-10T12:20:05;100192.15;;;9.69;40.53
74881;BME280;63427;49.654;6.596;2023-01-10T12:22:30;100187.64;;;10.06;39.93
74881;BME280;63427;49.654;6.596;2023-01-10T12:24:53;100182.12;;;9.92;40.04
74881;BME280;63427;49.654;6.596;2023-01-10T12:27:19;100179.37;;;9.73;39.12
74881;BME280;63427;49.654;6.596;2023-01-10T12:29:55;100179.61;;;10.04;38.74
74881;BME280;63427;49.654;6.596;2023-01-10T12:32:15;100180.61;;;10.06;38.88
74881;BME280;63427;49.654;6.596;2023-01-10T12:34:40;100174.89;;;10.22;39.01
74881;BME280;63427;49.654;6.596;2023-01-10T12:37:07;100167.15;;;10.49;38.78
74881;BME280;63427;49.654;6.596;2023-01-10T12:39:29;100168.21;;;10.25;38.15
74881;BME280;63427;49.654;6.596;2023-01-10T12:42:00;100166.20;;;10.44;38.82
74881;BME280;63427;49.654;6.596;2023-01-10T12:44:23;100162.38;;;10.25;38.26
74881;BME280;63427;49.654;6.596;2023-01-10T12:46:45;100160.14;;;10.27;38.50
74881;BME280;63427;49.654;6.596;2023-01-10T12:49:15;100156.70;;;10.74;37.95
74881;BME280;63427;49.654;6.596;2023-01-10T12:51:34;100150.78;;;10.59;37.93
74881;BME280;63427;49.654;6.596;2023-01-10T12:54:04;100153.30;;;10.22;37.96
74881;BME280;63427;49.654;6.596;2023-01-10T12:56:26;100150.77;;;10.68;37.67
74881;BME280;63427;49.654;6.596;2023-01-10T12:58:54;100149.16;;;10.35;38.29
74881;BME280;63427;49.654;6.596;2023-01-10T13:01:20;100151.86;;;10.57;38.01
74881;BME280;63427;49.654;6.596;2023-01-10T13:03:42;100150.21;;;11.25;37.14
74881;BME280;63427;49.654;6.596;2023-01-10T13:06:12;100148.42;;;11.07;37.16
74881;BME280;63427;49.654;6.596;2023-01-10T13:08:34;100146.99;;;10.92;37.68